Inhumas, Brazil
Current Conditions -  °F | °C
As of 9:00 PM on Thursday 27 Nov 2014 (Local Time) from SBGO Reporting Station
Thunderstorm Thunderstorm  
Wind Chill: 72°   Ceiling: 10000
Heat Index: 72°   Visibility: 6mi
Dew Point: 68°   Wind: 2mph
Humidity: 88%   Direction: 150°SSE
Pressure: NA   Gusts: NA
Location:  16.36°S, 49.5°W
Report Text: SBGO 272300Z 15002KT 9999 TSRA SCT040 FEW045CB OVC100 22/20 Q1015
Loading
Personal Weather Stations






























Interactive Weather Map New forecast layout! Learn more

10-Day Weather Forecast

Advertisements
Track Severe Weather on mobile